Time;durP1;ratioP1;P1;durP2;ratioP2;P2;SDS_P1;SDS_P2;PMS_P1;PMS_P2;Temp;Humidity;BMP_temperature;BMP_pressure;BME280_temperature;BME280_humidity;BME280_pressure;Samples;Min_cycle;Max_cycle;Signal;HPM_P1;HPM_P2
2023/10/20 00:02:03;;;;;;;20.87;15.57;;;15.10;99.90;;;;;;20830179;28;20224;-68
2023/10/20 00:12:04;;;;;;;19.57;15.20;;;15.10;99.90;;;;;;20830166;28;20236;-69
2023/10/20 00:22:06;;;;;;;21.33;15.83;;;;;;;;;;20829440;28;20672;-69
2023/10/20 00:32:10;;;;;;;25.00;16.47;;;;;;;;;;20829010;28;20238;-68
2023/10/20 00:42:12;;;;;;;20.07;14.60;;;;;;;;;;20835848;28;20212;-68
2023/10/20 00:52:15;;;;;;;21.33;15.13;;;;;;;;;;20844425;28;20634;-68
2023/10/20 01:02:17;;;;;;;20.00;14.30;;;;;;;;;;20843655;28;20715;-69
2023/10/20 01:12:20;;;;;;;20.30;14.73;;;;;;;;;;20843386;28;20229;-69
2023/10/20 01:22:23;;;;;;;25.13;16.13;;;;;;;;;;20842279;28;20216;-69
2023/10/20 01:32:25;;;;;;;19.97;14.80;;;;;;;;;;20841298;28;20228;-69
2023/10/20 01:42:27;;;;;;;20.07;14.50;;;;;;;;;;20841003;28;20215;-69
2023/10/20 01:52:29;;;;;;;20.87;15.10;;;;;;;;;;20839212;28;20236;-69
2023/10/20 02:02:31;;;;;;;20.30;14.73;;;;;;;;;;20838924;28;20711;-69
2023/10/20 02:12:34;;;;;;;19.67;14.83;;;;;;;;;;20838765;28;20245;-69
2023/10/20 02:22:36;;;;;;;21.27;14.77;;;;;;;;;;20837335;28;20204;-69
2023/10/20 02:32:38;;;;;;;20.13;14.27;;;;;;;;;;20870820;28;20243;-69
2023/10/20 02:42:43;;;;;;;18.87;14.63;;;;;;;;;;20918693;28;20216;-69
2023/10/20 02:52:45;;;;;;;19.37;15.50;;;;;;;;;;20917782;28;20234;-70
2023/10/20 03:02:48;;;;;;;24.17;15.20;;;;;;;;;;20915990;28;20243;-70
2023/10/20 03:12:51;;;;;;;22.40;16.67;;;;;;;;;;20916314;28;20576;-69
2023/10/20 03:22:53;;;;;;;23.00;17.10;;;;;;;;;;20915625;28;20667;-70
2023/10/20 03:32:55;;;;;;;22.13;16.73;;;;;;;;;;20914553;28;20239;-69
2023/10/20 03:42:58;;;;;;;22.27;16.50;;;;;;;;;;20914225;28;20218;-69
2023/10/20 03:53:00;;;;;;;24.93;16.83;;;;;;;;;;20913311;28;20240;-69
2023/10/20 04:03:03;;;;;;;23.50;16.47;;;;;;;;;;20912356;28;20316;-69
2023/10/20 04:13:05;;;;;;;25.53;18.47;;;;;;;;;;20912286;28;20326;-69
2023/10/20 04:23:07;;;;;;;26.13;16.93;;;;;;;;;;20912125;28;20208;-69
2023/10/20 04:54:07;;;;;;;27.17;17.83;;;;;;;;;;20898675;28;20578;-68
2023/10/20 05:04:15;;;;;;;23.83;16.40;;;;;;;;;;20910033;28;20240;-69
2023/10/20 05:14:18;;;;;;;21.23;15.73;;;;;;;;;;20909949;28;20292;-69
2023/10/20 05:24:20;;;;;;;22.33;15.53;;;;;;;;;;20909151;28;20315;-77
2023/10/20 05:34:22;;;;;;;23.77;16.20;;;;;;;;;;20922698;28;20367;-70
2023/10/20 05:44:24;;;;;;;20.43;15.73;;;14.40;99.90;;;;;;20923079;28;20242;-70
2023/10/20 05:54:26;;;;;;;22.23;16.50;;;14.40;99.90;;;;;;20921907;28;20648;-70
2023/10/20 06:04:28;;;;;;;24.27;16.80;;;14.50;99.90;;;;;;20920416;28;20273;-70
2023/10/20 06:14:30;;;;;;;26.73;17.17;;;14.40;99.90;;;;;;20908027;28;20671;-74
2023/10/20 06:24:33;;;;;;;24.10;16.50;;;14.40;99.90;;;;;;20884352;28;20232;-71
2023/10/20 06:34:37;;;;;;;21.33;16.03;;;14.40;99.90;;;;;;20860564;28;20247;-71
2023/10/20 06:44:38;;;;;;;21.67;15.83;;;14.40;99.90;;;;;;20836220;28;20237;-71
2023/10/20 06:54:40;;;;;;;21.20;16.60;;;14.40;99.90;;;;;;20917201;28;20659;-69
2023/10/20 07:04:43;;;;;;;23.10;16.40;;;14.40;99.90;;;;;;20916334;28;20676;-72
2023/10/20 07:14:44;;;;;;;25.13;17.10;;;14.40;99.90;;;;;;20916007;28;20212;-71
2023/10/20 07:24:47;;;;;;;21.07;15.67;;;14.40;99.90;;;;;;20864898;28;20240;-70
2023/10/20 07:34:49;;;;;;;22.17;15.80;;;14.50;99.90;;;;;;20831640;28;20572;-71
2023/10/20 07:44:53;;;;;;;22.60;16.03;;;14.60;99.90;;;;;;20831589;28;20243;-69
2023/10/20 07:54:55;;;;;;;21.07;14.33;;;14.60;99.90;;;;;;20830094;28;20215;-73
2023/10/20 08:04:56;;;;;;;17.10;13.87;;;14.60;99.90;;;;;;20829828;28;20271;-71
2023/10/20 08:14:59;;;;;;;18.93;12.67;;;14.70;99.90;;;;;;20829687;28;20201;-70
2023/10/20 08:25:00;;;;;;;17.90;13.60;;;14.70;99.90;;;;;;20881449;28;20766;-72
2023/10/20 08:35:06;;;;;;;19.57;13.33;;;14.70;99.90;;;;;;20911004;28;20200;-71
2023/10/20 08:45:12;;;;;;;20.70;14.03;;;14.90;99.90;;;;;;20910731;28;20440;-71
2023/10/20 08:55:13;;;;;;;22.57;16.37;;;14.90;99.90;;;;;;20910887;28;20208;-72
2023/10/20 09:05:24;;;;;;;33.13;17.60;;;14.90;99.90;;;;;;20918271;28;20275;-74
2023/10/20 09:15:26;;;;;;;21.57;13.90;;;15.00;99.90;;;;;;20926792;28;20234;-78
2023/10/20 09:25:29;;;;;;;23.83;15.90;;;15.10;99.90;;;;;;20953097;28;20235;-82
2023/10/20 09:35:31;;;;;;;22.53;14.97;;;15.20;99.90;;;;;;20940974;28;20598;-82
2023/10/20 09:45:37;;;;;;;22.40;15.70;;;15.20;99.90;;;;;;20923613;28;20850;-78
2023/10/20 09:55:40;;;;;;;19.70;12.63;;;15.30;99.90;;;;;;20922770;28;20230;-81
2023/10/20 10:05:42;;;;;;;17.20;12.83;;;15.40;99.90;;;;;;20929034;28;20245;-83
2023/10/20 10:15:46;;;;;;;16.40;12.50;;;15.40;99.90;;;;;;20921015;28;20207;-85
2023/10/20 10:25:48;;;;;;;19.17;12.63;;;15.60;99.90;;;;;;20923550;28;20239;-84
2023/10/20 10:36:03;;;;;;;16.77;12.23;;;15.80;99.90;;;;;;20922959;28;20673;-82
2023/10/20 10:46:05;;;;;;;17.07;12.60;;;15.90;99.90;;;;;;20929181;28;20232;-82
2023/10/20 10:56:09;;;;;;;15.40;12.27;;;15.90;99.90;;;;;;20935338;28;20246;-82
2023/10/20 11:06:11;;;;;;;13.97;11.03;;;;;;;;;;20917637;28;20246;-66
2023/10/20 11:16:14;;;;;;;16.97;11.93;;;;;;;;;;20915113;28;20208;-66
2023/10/20 11:26:21;;;;;;;14.70;11.40;;;;;;;;;;20865649;28;20231;-73
2023/10/20 11:36:23;;;;;;;16.00;11.40;;;;;;;;;;20898576;28;20258;-70
2023/10/20 11:46:25;;;;;;;14.40;10.63;;;;;;;;;;20831352;28;20255;-73
2023/10/20 11:56:27;;;;;;;13.57;10.97;;;;;;;;;;20871029;28;20291;-73
2023/10/20 12:06:36;;;;;;;14.60;11.13;;;;;;;;;;20911810;28;20282;-73
2023/10/20 12:16:38;;;;;;;16.23;12.47;;;;;;;;;;20911593;28;20214;-72
2023/10/20 12:26:40;;;;;;;17.27;11.87;;;;;;;;;;20903149;28;20232;-67
2023/10/20 12:36:43;;;;;;;16.77;12.40;;;;;;;;;;20845875;28;20605;-69
2023/10/20 12:46:45;;;;;;;14.80;11.57;;;;;;;;;;20841420;28;20746;-71
2023/10/20 12:56:47;;;;;;;13.27;11.33;;;;;;;;;;20843179;28;20211;-72
2023/10/20 13:06:49;;;;;;;13.97;10.50;;;;;;;;;;20894725;28;20249;-72
2023/10/20 13:17:02;;;;;;;19.87;11.83;;;;;;;;;;20923865;28;20223;-73
2023/10/20 13:27:04;;;;;;;15.37;11.30;;;;;;;;;;20923901;28;20266;-70
2023/10/20 13:37:06;;;;;;;14.33;11.40;;;;;;;;;;20923537;28;20214;-69
2023/10/20 13:47:08;;;;;;;7.83;6.10;;;;;;;;;;20927782;28;20326;-69
2023/10/20 13:57:12;;;;;;;6.40;5.00;;;;;;;;;;20964919;28;20207;-69
2023/10/20 14:07:14;;;;;;;5.80;4.60;;;;;;;;;;20965910;28;20334;-70
2023/10/20 14:17:16;;;;;;;9.83;4.67;;;;;;;;;;20920295;28;20458;-74
2023/10/20 14:27:19;;;;;;;4.40;3.47;;;;;;;;;;20982449;28;20298;-71
2023/10/20 14:37:21;;;;;;;3.60;3.13;;;;;;;;;;21001645;28;20696;-74
2023/10/20 14:47:25;;;;;;;3.30;2.57;;;;;;;;;;21000779;28;20237;-70
2023/10/20 14:57:27;;;;;;;2.90;2.60;;;;;;;;;;20970310;28;20601;-69
2023/10/20 15:07:30;;;;;;;2.70;2.43;;;;;;;;;;20915179;28;20271;-69
2023/10/20 15:17:32;;;;;;;6.43;2.17;;;;;;;;;;20915890;28;20371;-69
2023/10/20 15:27:34;;;;;;;4.97;2.63;;;;;;;;;;20915420;28;20664;-68
2023/10/20 15:37:37;;;;;;;4.50;2.77;;;;;;;;;;20914515;28;20215;-64
2023/10/20 15:47:39;;;;;;;4.13;2.90;;;;;;;;;;20945697;28;20234;-65
2023/10/20 15:57:41;;;;;;;5.70;2.27;;;;;;;;;;20952279;28;20498;-67
2023/10/20 16:07:44;;;;;;;2.80;2.00;;;;;;;;;;20945484;28;20330;-66
2023/10/20 16:17:46;;;;;;;8.23;2.83;;;;;;;;;;20946590;28;20222;-66
2023/10/20 16:27:48;;;;;;;2.90;2.20;;;;;;;;;;20921722;28;20239;-66
2023/10/20 16:37:53;;;;;;;1.53;1.20;;;;;;;;;;20952154;28;20657;-66
2023/10/20 16:47:55;;;;;;;3.97;1.17;;;;;;;;;;20946547;28;20241;-67
2023/10/20 16:57:58;;;;;;;2.10;1.30;;;;;;;;;;20955059;28;20211;-68
2023/10/20 17:08:00;;;;;;;2.70;1.63;;;;;;;;;;20943968;28;20251;-66
2023/10/20 17:18:05;;;;;;;2.80;1.20;;;;;;;;;;20976378;28;20629;-67
2023/10/20 17:28:08;;;;;;;1.40;1.10;;;;;;;;;;20924840;28;20252;-67
2023/10/20 17:38:12;;;;;;;2.30;1.03;;;;;;;;;;20944199;28;20303;-69
2023/10/20 17:48:14;;;;;;;0.90;0.90;;;;;;;;;;21005646;28;20339;-67
2023/10/20 17:58:16;;;;;;;1.83;1.40;;;;;;;;;;21005230;28;20257;-65
2023/10/20 18:08:19;;;;;;;2.93;1.50;;;;;;;;;;21004146;28;20250;-64
2023/10/20 18:18:21;;;;;;;2.90;1.93;;;;;;;;;;20932905;28;20231;-64
2023/10/20 18:28:23;;;;;;;2.50;1.70;;;;;;;;;;20919775;28;20291;-67
2023/10/20 18:38:25;;;;;;;6.13;4.37;;;;;;;;;;20919371;28;20671;-63
2023/10/20 18:48:27;;;;;;;10.57;5.80;;;;;;;;;;20918440;28;20237;-65
2023/10/20 18:58:30;;;;;;;13.73;8.70;;;;;;;;;;20939624;28;20247;-66
2023/10/20 19:08:32;;;;;;;3.70;1.60;;;;;;;;;;20970625;28;20242;-66
2023/10/20 19:18:35;;;;;;;2.43;1.30;;;;;;;;;;20933281;28;20673;-68
2023/10/20 19:28:40;;;;;;;1.30;1.20;;;;;;;;;;20921650;28;20231;-67
2023/10/20 19:38:42;;;;;;;2.83;1.50;;;;;;;;;;20997455;28;20261;-68
2023/10/20 19:48:45;;;;;;;2.10;1.90;;;;;;;;;;20995510;28;20239;-68
2023/10/20 19:58:48;;;;;;;16.97;10.37;;;;;;;;;;20995385;28;20217;-68
2023/10/20 20:08:50;;;;;;;4.60;2.73;;;;;;;;;;20935053;28;20246;-65
2023/10/20 20:18:53;;;;;;;1.30;1.10;;;;;;;;;;20910022;28;20210;-65
2023/10/20 20:28:56;;;;;;;1.53;1.20;;;;;;;;;;20907541;28;20309;-68
2023/10/20 20:39:00;;;;;;;2.60;1.27;;;;;;;;;;20909020;28;20671;-64
2023/10/20 20:49:03;;;;;;;5.27;1.30;;;;;;;;;;20908434;28;20748;-64
2023/10/20 20:59:05;;;;;;;2.33;1.30;;;;;;;;;;20914586;28;20211;-64
2023/10/20 21:09:08;;;;;;;2.03;1.53;;;;;;;;;;20984352;28;20247;-65
2023/10/20 21:19:11;;;;;;;4.77;1.70;;;;;;;;;;20987927;28;20574;-66
2023/10/20 21:29:13;;;;;;;2.27;1.60;;;;;;;;;;21005016;28;20770;-65
2023/10/20 21:39:15;;;;;;;1.20;1.10;;;;;;;;;;21004626;28;20249;-65
2023/10/20 21:49:18;;;;;;;1.97;1.20;;;;;;;;;;21003678;28;20240;-64
2023/10/20 21:59:20;;;;;;;1.63;1.30;;;;;;;;;;21002608;28;20294;-63
2023/10/20 22:09:22;;;;;;;3.50;1.20;;;;;;;;;;20940095;28;20677;-65
2023/10/20 22:19:30;;;;;;;3.27;1.20;;;;;;;;;;20920441;28;20634;-65
2023/10/20 22:29:32;;;;;;;1.40;1.13;;;;;;;;;;20920463;28;20299;-66
2023/10/20 22:39:35;;;;;;;1.90;1.47;;;;;;;;;;20920329;28;20722;-67
2023/10/20 22:49:37;;;;;;;2.13;1.80;;;;;;;;;;20918566;28;20285;-64
2023/10/20 22:59:40;;;;;;;2.40;1.80;;;;;;;;;;20917648;28;20568;-64
2023/10/20 23:09:42;;;;;;;5.07;1.93;;;;;;;;;;20916852;28;20243;-64
2023/10/20 23:19:44;;;;;;;2.53;1.70;;;;;;;;;;20915355;28;20228;-64
2023/10/20 23:29:46;;;;;;;2.00;1.60;;;;;;;;;;20915262;28;20234;-64
2023/10/20 23:39:48;;;;;;;3.23;1.53;;;;;;;;;;20915136;28;20219;-64
2023/10/20 23:49:51;;;;;;;4.53;1.90;;;;;;;;;;20913819;28;20638;-64
2023/10/20 23:59:53;;;;;;;3.03;2.40;;;;;;;;;;20912550;28;20208;-65
